createdAt,value
2016-10-12T00:00:28.466Z,932.91
2016-10-12T00:01:28.395Z,932.86
2016-10-12T00:02:28.499Z,932.8
2016-10-12T00:03:28.538Z,932.76
2016-10-12T00:04:28.592Z,932.71
2016-10-12T00:05:28.670Z,932.64
2016-10-12T00:06:28.667Z,932.61
2016-10-12T00:07:28.732Z,932.54
2016-10-12T00:08:28.772Z,932.48
2016-10-12T00:09:28.831Z,932.43
2016-10-12T00:10:28.908Z,932.41
2016-10-12T00:11:28.979Z,932.39
2016-10-12T00:12:28.967Z,932.42
2016-10-12T00:13:29.018Z,932.52
2016-10-12T00:14:29.116Z,932.56
2016-10-12T00:15:29.198Z,932.62
2016-10-12T00:16:29.180Z,932.67
2016-10-12T00:17:29.267Z,932.63
2016-10-12T00:18:29.278Z,932.56
2016-10-12T00:19:29.329Z,932.53
2016-10-12T00:20:29.390Z,932.51
2016-10-12T00:21:29.495Z,932.51
2016-10-12T00:22:29.503Z,932.45
2016-10-12T00:23:29.568Z,932.47
2016-10-12T00:24:29.600Z,932.41
2016-10-12T00:25:29.688Z,932.32
2016-10-12T00:26:29.725Z,932.3
2016-10-12T00:27:29.791Z,932.19
2016-10-12T00:28:29.821Z,932.17
2016-10-12T00:29:29.888Z,932.15
2016-10-12T00:30:29.904Z,932.18
2016-10-12T00:31:29.974Z,932.22
2016-10-12T00:32:30.060Z,932.24
2016-10-12T00:33:30.081Z,932.18
2016-10-12T00:34:30.112Z,932.18
2016-10-12T00:35:30.156Z,932.12
2016-10-12T00:36:30.341Z,932.1
2016-10-12T00:37:30.282Z,932.05
2016-10-12T00:38:30.337Z,932.04
2016-10-12T00:39:30.378Z,932.05
2016-10-12T00:40:30.429Z,932.11
2016-10-12T00:41:30.521Z,932.14
2016-10-12T00:42:30.522Z,932.19
2016-10-12T00:43:30.595Z,932.25
2016-10-12T00:44:30.655Z,932.27
2016-10-12T00:45:30.675Z,932.28
2016-10-12T00:46:30.735Z,932.32
2016-10-12T00:47:30.784Z,932.32
2016-10-12T00:48:30.839Z,932.37
2016-10-12T00:49:30.905Z,932.35
2016-10-12T00:50:30.984Z,932.33
2016-10-12T00:51:30.991Z,932.42
2016-10-12T00:52:31.040Z,932.4
2016-10-12T00:53:31.112Z,932.42
2016-10-12T00:54:31.191Z,932.44
2016-10-12T00:55:31.216Z,932.46
2016-10-12T00:56:31.241Z,932.44
2016-10-12T00:57:31.310Z,932.42
2016-10-12T00:58:31.341Z,932.47
2016-10-12T00:59:31.443Z,932.44
2016-10-12T01:00:31.472Z,932.42
2016-10-12T01:01:31.542Z,932.5
2016-10-12T01:02:31.577Z,932.54
2016-10-12T01:03:31.612Z,932.49
2016-10-12T01:04:31.694Z,932.54
2016-10-12T01:05:31.764Z,932.56
2016-10-12T01:06:31.759Z,932.58
2016-10-12T01:07:31.917Z,932.62
2016-10-12T01:08:31.879Z,932.69
2016-10-12T01:09:31.926Z,932.73
2016-10-12T01:10:32.025Z,932.76
2016-10-12T01:11:32.022Z,932.82
2016-10-12T01:12:32.180Z,932.83
2016-10-12T01:13:32.143Z,932.82
2016-10-12T01:14:32.184Z,932.85
2016-10-12T01:15:32.227Z,932.87
2016-10-12T01:16:32.338Z,932.88
2016-10-12T01:17:32.334Z,932.9
2016-10-12T01:18:32.384Z,932.85
2016-10-12T01:19:32.442Z,932.85
2016-10-12T01:20:32.521Z,932.8
2016-10-12T01:21:32.583Z,932.78
2016-10-12T01:22:32.611Z,932.8
2016-10-12T01:23:32.633Z,932.82
2016-10-12T01:24:32.711Z,932.78
2016-10-12T01:25:32.749Z,932.83
2016-10-12T01:26:32.798Z,932.85
2016-10-12T01:27:32.844Z,932.82
2016-10-12T01:28:32.902Z,932.84
2016-10-12T01:29:32.953Z,932.83
2016-10-12T01:30:33.001Z,932.86
2016-10-12T01:31:33.060Z,932.87
2016-10-12T01:32:33.167Z,932.84
2016-10-12T01:33:33.165Z,932.85
2016-10-12T01:34:33.243Z,932.84
2016-10-12T01:35:33.316Z,932.84
2016-10-12T01:36:33.326Z,932.82
2016-10-12T01:37:33.382Z,932.83
2016-10-12T01:38:33.507Z,932.89
2016-10-12T01:39:33.460Z,932.93
2016-10-12T01:40:33.554Z,932.83
2016-10-12T01:41:33.564Z,932.86
2016-10-12T01:42:33.830Z,932.79
2016-10-12T01:43:33.692Z,932.79
2016-10-12T01:44:33.767Z,932.74
2016-10-12T01:45:33.814Z,932.75
2016-10-12T01:46:33.845Z,932.76
2016-10-12T01:47:33.948Z,932.74
2016-10-12T01:48:33.954Z,932.73
2016-10-12T01:49:34.020Z,932.69
2016-10-12T01:50:34.090Z,932.71
2016-10-12T01:51:34.138Z,932.71
2016-10-12T01:52:34.159Z,932.76
2016-10-12T01:53:34.241Z,932.75
2016-10-12T01:54:34.239Z,932.8
2016-10-12T01:55:34.345Z,932.78
2016-10-12T01:56:34.353Z,932.8
2016-10-12T01:57:34.419Z,932.8
2016-10-12T01:58:34.494Z,932.77
2016-10-12T01:59:34.530Z,932.77
2016-10-12T02:00:34.634Z,932.75
2016-10-12T02:01:34.674Z,932.76
2016-10-12T02:02:34.670Z,932.74
2016-10-12T02:03:34.718Z,932.74
2016-10-12T02:04:34.772Z,932.76
2016-10-12T02:05:34.812Z,932.73
2016-10-12T02:06:34.887Z,932.7
2016-10-12T02:07:34.946Z,932.68
2016-10-12T02:08:34.978Z,932.61
2016-10-12T02:09:35.025Z,932.65
2016-10-12T02:10:35.111Z,932.64
2016-10-12T02:11:35.148Z,932.62
2016-10-12T02:12:35.186Z,932.61
2016-10-12T02:13:35.268Z,932.62
2016-10-12T02:14:35.376Z,932.63
2016-10-12T02:15:35.356Z,932.63
2016-10-12T02:16:35.404Z,932.6
2016-10-12T02:17:35.440Z,932.58
2016-10-12T02:18:35.499Z,932.6
2016-10-12T02:19:35.546Z,932.62
2016-10-12T02:20:35.670Z,932.71
2016-10-12T02:21:35.670Z,932.67
2016-10-12T02:22:35.718Z,932.72
2016-10-12T02:23:35.821Z,932.71
2016-10-12T02:24:35.795Z,932.74
2016-10-12T02:25:35.849Z,932.71
2016-10-12T02:26:35.912Z,932.67
2016-10-12T02:27:35.962Z,932.69
2016-10-12T02:28:36.026Z,932.68
2016-10-12T02:29:36.064Z,932.65
2016-10-12T02:30:36.167Z,932.67
2016-10-12T02:31:36.173Z,932.67
2016-10-12T02:32:36.270Z,932.68
2016-10-12T02:33:36.283Z,932.66
2016-10-12T02:34:36.327Z,932.63
2016-10-12T02:35:36.363Z,932.6
2016-10-12T02:36:36.495Z,932.58
2016-10-12T02:37:36.509Z,932.59
2016-10-12T02:38:36.522Z,932.53
2016-10-12T02:39:36.597Z,932.51
2016-10-12T02:40:36.687Z,932.54
2016-10-12T02:41:36.686Z,932.58
2016-10-12T02:42:36.743Z,932.54
2016-10-12T02:43:36.806Z,932.55
2016-10-12T02:44:36.839Z,932.57
2016-10-12T02:45:36.908Z,932.55
2016-10-12T02:46:36.942Z,932.51
2016-10-12T02:47:37.036Z,932.49
2016-10-12T02:48:37.102Z,932.47
2016-10-12T02:49:37.099Z,932.45
2016-10-12T02:50:37.247Z,932.43
2016-10-12T02:51:37.206Z,932.39
2016-10-12T02:52:37.260Z,932.35
2016-10-12T02:53:37.320Z,932.36
2016-10-12T02:54:37.411Z,932.31
2016-10-12T02:55:37.425Z,932.3
2016-10-12T02:56:37.468Z,932.28
2016-10-12T02:57:37.536Z,932.26
2016-10-12T02:58:37.629Z,932.25
2016-10-12T02:59:37.608Z,932.23
2016-10-12T03:00:37.670Z,932.18
2016-10-12T03:01:37.760Z,932.2
2016-10-12T03:02:37.775Z,932.21
2016-10-12T03:03:37.832Z,932.21
2016-10-12T03:04:37.878Z,932.18
2016-10-12T03:05:37.943Z,932.2
2016-10-12T03:06:37.980Z,932.15
2016-10-12T03:07:38.028Z,932.13
2016-10-12T03:08:38.128Z,932.1
2016-10-12T03:09:38.167Z,932.09
2016-10-12T03:10:38.204Z,932.06
2016-10-12T03:11:38.260Z,932.09
2016-10-12T03:12:38.282Z,932.06
2016-10-12T03:13:38.375Z,932.02
2016-10-12T03:14:38.410Z,932.07
2016-10-12T03:15:38.503Z,932.1
2016-10-12T03:16:38.488Z,932.11
2016-10-12T03:17:38.588Z,932.12
2016-10-12T03:18:38.625Z,932.12
2016-10-12T03:19:38.686Z,932.09
2016-10-12T03:20:38.753Z,932.07
2016-10-12T03:21:38.757Z,932.01
2016-10-12T03:22:38.840Z,931.99
2016-10-12T03:23:38.893Z,931.96
2016-10-12T03:24:38.932Z,931.91
2016-10-12T03:25:38.966Z,931.96
2016-10-12T03:26:39.030Z,931.92
2016-10-12T03:27:39.103Z,931.91
2016-10-12T03:28:39.118Z,931.93
2016-10-12T03:29:39.165Z,931.92
2016-10-12T03:30:39.211Z,931.9
2016-10-12T03:31:39.362Z,931.88
2016-10-12T03:32:39.380Z,931.91
2016-10-12T03:33:39.373Z,931.94
2016-10-12T03:34:39.428Z,931.91
2016-10-12T03:35:39.488Z,931.94
2016-10-12T03:36:39.635Z,931.94
2016-10-12T03:37:39.584Z,931.93
2016-10-12T03:38:39.639Z,931.94
2016-10-12T03:39:39.719Z,931.98
2016-10-12T03:40:39.762Z,931.96
2016-10-12T03:41:39.794Z,931.91
2016-10-12T03:42:39.844Z,931.89
2016-10-12T03:43:39.889Z,931.87
2016-10-12T03:44:39.942Z,931.88
2016-10-12T03:45:40.050Z,931.9
2016-10-12T03:46:40.054Z,931.9
2016-10-12T03:47:40.108Z,931.85
2016-10-12T03:48:40.185Z,931.82
2016-10-12T03:49:40.220Z,931.82
2016-10-12T03:50:40.261Z,931.79
2016-10-12T03:51:40.324Z,931.76
2016-10-12T03:52:40.354Z,931.65
2016-10-12T03:53:40.443Z,931.69
2016-10-12T03:54:40.477Z,931.61
2016-10-12T03:55:40.552Z,931.55
2016-10-12T03:56:40.569Z,931.55
2016-10-12T03:57:40.620Z,931.5
2016-10-12T03:58:40.718Z,931.47
2016-10-12T03:59:40.757Z,931.44
2016-10-12T04:00:40.776Z,931.45
2016-10-12T04:01:40.817Z,931.45
2016-10-12T04:02:40.878Z,931.44
2016-10-12T04:03:40.932Z,931.41
2016-10-12T04:04:41.006Z,931.39
2016-10-12T04:05:41.035Z,931.39
2016-10-12T04:06:41.101Z,931.38
2016-10-12T04:07:41.168Z,931.38
2016-10-12T04:08:41.200Z,931.32
2016-10-12T04:09:41.295Z,931.34
2016-10-12T04:10:41.290Z,931.29
2016-10-12T04:11:41.376Z,931.3
2016-10-12T04:12:41.514Z,931.28
2016-10-12T04:13:41.467Z,931.29
2016-10-12T04:14:41.510Z,931.27
2016-10-12T04:15:41.540Z,931.26
2016-10-12T04:16:41.608Z,931.24
2016-10-12T04:17:41.807Z,931.22
2016-10-12T04:18:41.738Z,931.21
2016-10-12T04:19:41.830Z,931.15
2016-10-12T04:20:41.856Z,931.12
2016-10-12T04:21:41.916Z,931.11
2016-10-12T04:22:41.933Z,931.09
2016-10-12T04:23:41.995Z,931.06
2016-10-12T04:24:42.019Z,931
2016-10-12T04:25:42.071Z,930.95
2016-10-12T04:26:42.119Z,930.93
2016-10-12T04:27:42.170Z,930.9
2016-10-12T04:28:42.221Z,930.85
2016-10-12T04:29:42.306Z,930.87
2016-10-12T04:30:42.340Z,930.84
2016-10-12T04:31:42.421Z,930.84
2016-10-12T04:32:42.438Z,930.8
2016-10-12T04:33:42.480Z,930.78
2016-10-12T04:34:42.564Z,930.78
2016-10-12T04:35:42.637Z,930.69
2016-10-12T04:36:42.682Z,930.64
2016-10-12T04:37:42.704Z,930.6
2016-10-12T04:38:42.776Z,930.51
2016-10-12T04:39:42.805Z,930.45
2016-10-12T04:40:42.835Z,930.4
2016-10-12T04:41:42.934Z,930.38
2016-10-12T04:42:42.952Z,930.34
2016-10-12T04:43:43.038Z,930.33
2016-10-12T04:44:43.050Z,930.28
2016-10-12T04:45:43.101Z,930.32
2016-10-12T04:46:43.150Z,930.31
2016-10-12T04:47:43.207Z,930.28
2016-10-12T04:48:43.251Z,930.29
2016-10-12T04:49:43.307Z,930.32
2016-10-12T04:50:43.354Z,930.34
2016-10-12T04:51:43.411Z,930.3
2016-10-12T04:52:43.465Z,930.37
2016-10-12T04:53:43.678Z,930.35
2016-10-12T04:54:43.570Z,930.35
2016-10-12T04:55:43.609Z,930.36
2016-10-12T04:56:43.665Z,930.38
2016-10-12T04:57:43.762Z,930.4
2016-10-12T04:58:43.771Z,930.38
2016-10-12T04:59:43.878Z,930.41
2016-10-12T05:00:43.880Z,930.35
2016-10-12T05:01:43.924Z,930.31
2016-10-12T05:02:43.969Z,930.31
2016-10-12T05:03:44.067Z,930.33
2016-10-12T05:04:44.136Z,930.31
2016-10-12T05:05:44.173Z,930.28
2016-10-12T05:06:44.196Z,930.26
2016-10-12T05:07:44.285Z,930.26
2016-10-12T05:08:44.285Z,930.22
2016-10-12T05:09:44.381Z,930.21
2016-10-12T05:10:44.385Z,930.19
2016-10-12T05:11:44.450Z,930.18
2016-10-12T05:12:44.555Z,930.2
2016-10-12T05:13:44.570Z,930.21
2016-10-12T05:14:44.585Z,930.2
2016-10-12T05:15:44.653Z,930.26
2016-10-12T05:16:44.692Z,930.26
2016-10-12T05:17:44.765Z,930.28
2016-10-12T05:18:44.844Z,930.31
2016-10-12T05:19:44.853Z,930.33
2016-10-12T05:20:44.901Z,930.4
2016-10-12T05:21:44.973Z,930.39
2016-10-12T05:22:45.003Z,930.42
2016-10-12T05:23:45.054Z,930.44
2016-10-12T05:24:45.099Z,930.45
2016-10-12T05:25:45.201Z,930.48
2016-10-12T05:26:45.209Z,930.49
2016-10-12T05:27:45.259Z,930.51
2016-10-12T05:28:45.357Z,930.53
2016-10-12T05:29:45.358Z,930.53
2016-10-12T05:30:45.419Z,930.54
2016-10-12T05:31:45.454Z,930.48
2016-10-12T05:32:45.530Z,930.47
2016-10-12T05:33:45.638Z,930.45
2016-10-12T05:34:45.736Z,930.41
2016-10-12T05:35:45.704Z,930.38
2016-10-12T05:36:45.719Z,930.36
2016-10-12T05:37:45.780Z,930.4
2016-10-12T05:38:45.841Z,930.4
2016-10-12T05:39:45.911Z,930.43
2016-10-12T05:40:45.944Z,930.43
2016-10-12T05:41:45.998Z,930.42
2016-10-12T05:42:46.064Z,930.41
2016-10-12T05:43:46.126Z,930.46
2016-10-12T05:44:46.151Z,930.43
2016-10-12T05:45:46.180Z,930.43
2016-10-12T05:46:46.277Z,930.4
2016-10-12T05:47:46.297Z,930.4
2016-10-12T05:48:46.354Z,930.44
2016-10-12T05:49:46.385Z,930.46
2016-10-12T05:50:46.447Z,930.47
2016-10-12T05:51:46.530Z,930.43
2016-10-12T05:52:46.594Z,930.48
2016-10-12T05:53:46.603Z,930.51
2016-10-12T05:54:46.699Z,930.51
2016-10-12T05:55:46.720Z,930.51
2016-10-12T05:56:46.773Z,930.52
2016-10-12T05:57:46.839Z,930.57
2016-10-12T05:58:46.873Z,930.55
2016-10-12T05:59:46.967Z,930.54
2016-10-12T06:00:46.997Z,930.59
2016-10-12T06:01:47.012Z,930.52
2016-10-12T06:02:47.054Z,930.63
2016-10-12T06:03:47.119Z,930.6
2016-10-12T06:04:47.204Z,930.63
2016-10-12T06:05:47.375Z,930.64
2016-10-12T06:06:47.275Z,930.65
2016-10-12T06:07:47.336Z,930.66
2016-10-12T06:08:47.389Z,930.65
2016-10-12T06:09:47.424Z,930.68
2016-10-12T06:10:47.540Z,930.7
2016-10-12T06:11:47.571Z,930.72
2016-10-12T06:12:47.580Z,930.71
2016-10-12T06:13:47.646Z,930.69
2016-10-12T06:14:47.715Z,930.69
2016-10-12T06:15:47.739Z,930.69
2016-10-12T06:16:47.789Z,930.64
2016-10-12T06:17:47.891Z,930.62
2016-10-12T06:18:47.947Z,930.63
2016-10-12T06:19:47.956Z,930.62
2016-10-12T06:20:47.990Z,930.61
2016-10-12T06:21:48.033Z,930.62
2016-10-12T06:22:48.110Z,930.66
2016-10-12T06:23:48.135Z,930.64
2016-10-12T06:24:48.196Z,930.63
2016-10-12T06:25:48.249Z,930.6
2016-10-12T06:26:48.349Z,930.6
2016-10-12T06:27:48.389Z,930.53
2016-10-12T06:28:48.449Z,930.5
2016-10-12T06:29:48.467Z,930.51
2016-10-12T06:30:48.514Z,930.45
2016-10-12T06:31:48.566Z,930.46
2016-10-12T06:32:48.608Z,930.49
2016-10-12T06:33:48.718Z,930.49
2016-10-12T06:34:48.754Z,930.54
2016-10-12T06:35:48.763Z,930.61
2016-10-12T06:36:48.915Z,930.67
2016-10-12T06:37:48.869Z,930.67
2016-10-12T06:38:48.915Z,930.68
2016-10-12T06:39:49.012Z,930.68
2016-10-12T06:40:49.016Z,930.69
2016-10-12T06:41:49.239Z,930.68
2016-10-12T06:42:49.143Z,930.68
2016-10-12T06:43:49.200Z,930.69
2016-10-12T06:44:49.229Z,930.66
2016-10-12T06:45:49.274Z,930.63
2016-10-12T06:46:49.359Z,930.59
2016-10-12T06:47:49.382Z,930.67
2016-10-12T06:48:49.436Z,930.65
2016-10-12T06:49:49.523Z,930.66
2016-10-12T06:50:49.537Z,930.66
2016-10-12T06:51:49.582Z,930.69
2016-10-12T06:52:49.630Z,930.72
2016-10-12T06:53:49.701Z,930.74
2016-10-12T06:54:49.804Z,930.77
2016-10-12T06:55:49.793Z,930.81
2016-10-12T06:56:49.894Z,930.79
2016-10-12T06:57:49.898Z,930.8
2016-10-12T06:58:49.992Z,930.78
2016-10-12T06:59:50.041Z,930.74
2016-10-12T07:00:50.044Z,930.72
2016-10-12T07:01:50.098Z,930.7
2016-10-12T07:02:50.169Z,930.72
2016-10-12T07:03:50.246Z,930.71
2016-10-12T07:04:50.269Z,930.72
2016-10-12T07:05:50.307Z,930.72
2016-10-12T07:06:50.405Z,930.72
2016-10-12T07:07:50.448Z,930.71
2016-10-12T07:08:50.474Z,930.7
2016-10-12T07:09:50.508Z,930.74
2016-10-12T07:10:50.565Z,930.79
2016-10-12T07:11:50.602Z,930.77
2016-10-12T07:12:50.673Z,930.73
2016-10-12T07:13:50.745Z,930.75
2016-10-12T07:14:50.798Z,930.77
2016-10-12T07:15:50.829Z,930.75
2016-10-12T07:16:50.867Z,930.81
2016-10-12T07:17:51.019Z,930.84
2016-10-12T07:18:50.979Z,930.82
2016-10-12T07:19:51.055Z,930.84
2016-10-12T07:20:51.091Z,930.87
2016-10-12T07:21:51.191Z,930.92
2016-10-12T07:22:51.177Z,930.95
2016-10-12T07:23:51.279Z,930.97
2016-10-12T07:24:51.288Z,930.99
2016-10-12T07:25:51.368Z,931.01
2016-10-12T07:26:51.429Z,931.06
2016-10-12T07:27:51.447Z,931.09
2016-10-12T07:28:51.488Z,931.06
2016-10-12T07:29:51.551Z,931.08
2016-10-12T07:30:51.602Z,931.08
2016-10-12T07:31:51.629Z,931.1
2016-10-12T07:32:51.688Z,931.1
2016-10-12T07:33:51.798Z,931.11
2016-10-12T07:34:51.812Z,931.11
2016-10-12T07:35:51.847Z,931.16
2016-10-12T07:36:51.941Z,931.18
2016-10-12T07:37:51.964Z,931.18
2016-10-12T07:38:52.036Z,931.22
2016-10-12T07:39:52.071Z,931.25
2016-10-12T07:40:52.117Z,931.28
2016-10-12T07:41:52.168Z,931.3
2016-10-12T07:42:52.236Z,931.38
2016-10-12T07:43:52.269Z,931.39
2016-10-12T07:44:52.339Z,931.44
2016-10-12T07:45:52.405Z,931.44
2016-10-12T07:46:52.456Z,931.4
2016-10-12T07:47:52.469Z,931.36
2016-10-12T07:48:52.603Z,931.43
2016-10-12T07:49:52.599Z,931.39
2016-10-12T07:50:52.608Z,931.39
2016-10-12T07:51:52.685Z,931.36
2016-10-12T07:52:52.715Z,931.36
2016-10-12T07:53:52.824Z,931.37
2016-10-12T07:54:52.835Z,931.43
2016-10-12T07:55:52.883Z,931.49
2016-10-12T07:56:52.944Z,931.46
2016-10-12T07:57:53.044Z,931.51
2016-10-12T07:58:53.072Z,931.58
2016-10-12T07:59:53.098Z,931.55
2016-10-12T08:00:53.132Z,931.65
2016-10-12T08:01:53.189Z,931.66
2016-10-12T08:02:53.254Z,931.66
2016-10-12T08:03:53.320Z,931.72
2016-10-12T08:04:53.389Z,931.77
2016-10-12T08:05:53.407Z,931.75
2016-10-12T08:06:53.472Z,931.72
2016-10-12T08:07:53.487Z,931.74
2016-10-12T08:08:53.587Z,931.73
2016-10-12T08:09:53.595Z,931.71
2016-10-12T08:10:53.642Z,931.81
2016-10-12T08:11:53.758Z,931.84
2016-10-12T08:12:53.782Z,931.87
2016-10-12T08:13:53.800Z,931.91
2016-10-12T08:14:53.868Z,931.94
2016-10-12T08:15:53.956Z,931.96
2016-10-12T08:16:53.954Z,931.95
2016-10-12T08:17:54.015Z,932.01
2016-10-12T08:18:54.053Z,932.03
2016-10-12T08:19:54.196Z,932.06
2016-10-12T08:20:54.167Z,932.06
2016-10-12T08:21:54.235Z,932.11
2016-10-12T08:22:54.252Z,932.1
2016-10-12T08:23:54.328Z,932.12
2016-10-12T08:24:54.368Z,932.1
2016-10-12T08:25:54.432Z,932.13
2016-10-12T08:26:54.456Z,932.15
2016-10-12T08:27:54.534Z,932.13
2016-10-12T08:28:54.578Z,932.11
2016-10-12T08:29:54.621Z,932.12
2016-10-12T08:30:54.679Z,932.08
2016-10-12T08:31:54.747Z,932.07
2016-10-12T08:32:54.786Z,932.05
2016-10-12T08:33:54.824Z,932.01
2016-10-12T08:34:54.880Z,932.07
2016-10-12T08:35:54.952Z,932.13
2016-10-12T08:36:54.973Z,932.14
2016-10-12T08:37:55.030Z,932.2
2016-10-12T08:38:55.072Z,932.24
2016-10-12T08:39:55.142Z,932.24
2016-10-12T08:40:55.195Z,932.27
2016-10-12T08:41:55.246Z,932.27
2016-10-12T08:42:55.280Z,932.28
2016-10-12T08:43:55.339Z,932.26
2016-10-12T08:44:55.382Z,932.29
2016-10-12T08:45:55.450Z,932.28
2016-10-12T08:46:55.486Z,932.34
2016-10-12T08:47:55.562Z,932.31
2016-10-12T08:48:55.603Z,932.34
2016-10-12T08:49:55.676Z,932.3
2016-10-12T08:50:55.692Z,932.31
2016-10-12T08:51:55.759Z,932.32
2016-10-12T08:52:55.800Z,932.31
2016-10-12T08:53:55.851Z,932.34
2016-10-12T08:54:55.898Z,932.34
2016-10-12T08:55:56.076Z,932.34
2016-10-12T08:56:56.029Z,932.35
2016-10-12T08:57:56.076Z,932.36
2016-10-12T08:58:56.111Z,932.39
2016-10-12T08:59:56.183Z,932.44
2016-10-12T09:00:56.329Z,932.44
2016-10-12T09:01:56.282Z,932.47
2016-10-12T09:02:56.310Z,932.5
2016-10-12T09:03:56.388Z,932.53
2016-10-12T09:04:56.417Z,932.53
2016-10-12T09:05:56.474Z,932.54
2016-10-12T09:06:56.516Z,932.54
2016-10-12T09:07:56.571Z,932.53
2016-10-12T09:08:56.623Z,932.52
2016-10-12T09:09:56.696Z,932.55
2016-10-12T09:10:56.726Z,932.57
2016-10-12T09:11:56.787Z,932.6
2016-10-12T09:12:56.824Z,932.64
2016-10-12T09:13:56.889Z,932.65
2016-10-12T09:14:56.954Z,932.67
2016-10-12T09:15:56.989Z,932.63
2016-10-12T09:16:57.033Z,932.61
2016-10-12T09:17:57.110Z,932.65
2016-10-12T09:18:57.154Z,932.64
2016-10-12T09:19:57.221Z,932.66
2016-10-12T09:20:57.250Z,932.7
2016-10-12T09:21:57.320Z,932.71
2016-10-12T09:22:57.373Z,932.74
2016-10-12T09:23:57.414Z,932.79
2016-10-12T09:24:57.479Z,932.75
2016-10-12T09:25:57.501Z,932.74
2016-10-12T09:26:57.553Z,932.69
2016-10-12T09:27:57.616Z,932.67
2016-10-12T09:28:57.670Z,932.69
2016-10-12T09:29:57.718Z,932.7
2016-10-12T09:30:57.781Z,932.72
2016-10-12T09:31:57.824Z,932.68
2016-10-12T09:32:57.867Z,932.68
2016-10-12T09:33:57.947Z,932.64
2016-10-12T09:34:57.986Z,932.6
2016-10-12T09:35:58.026Z,932.58
2016-10-12T09:36:58.079Z,932.59
2016-10-12T09:37:58.156Z,932.54
2016-10-12T09:38:58.209Z,932.6
2016-10-12T09:39:58.267Z,932.56
2016-10-12T09:40:58.299Z,932.55
2016-10-12T09:41:58.458Z,932.56
2016-10-12T09:42:58.400Z,932.61
2016-10-12T09:43:58.467Z,932.52
2016-10-12T09:44:58.528Z,932.54
2016-10-12T09:45:58.581Z,932.5
2016-10-12T09:46:58.742Z,932.45
2016-10-12T09:47:58.680Z,932.45
2016-10-12T09:48:58.746Z,932.49
2016-10-12T09:49:58.788Z,932.51
2016-10-12T09:50:58.849Z,932.56
2016-10-12T09:51:58.915Z,932.61
2016-10-12T09:52:58.978Z,932.65
2016-10-12T09:53:59.020Z,932.69
2016-10-12T09:54:59.095Z,932.72
2016-10-12T09:55:59.124Z,932.78
2016-10-12T09:56:59.216Z,932.73
2016-10-12T09:57:59.250Z,932.76
2016-10-12T09:58:59.312Z,932.78
2016-10-12T09:59:59.364Z,932.78
2016-10-12T10:00:59.434Z,932.77
2016-10-12T10:01:59.508Z,932.78
2016-10-12T10:02:59.568Z,932.8
2016-10-12T10:03:59.630Z,932.74
2016-10-12T10:04:59.666Z,932.77
2016-10-12T10:05:59.734Z,932.74
2016-10-12T10:06:59.789Z,932.76
2016-10-12T10:07:59.862Z,932.74
2016-10-12T10:08:59.920Z,932.77
2016-10-12T10:09:59.995Z,932.75
2016-10-12T10:11:00.031Z,932.74
2016-10-12T10:12:00.102Z,932.69
2016-10-12T10:13:00.167Z,932.71
2016-10-12T10:14:00.230Z,932.71
2016-10-12T10:15:00.288Z,932.7
2016-10-12T10:16:00.347Z,932.71
2016-10-12T10:17:00.404Z,932.74
2016-10-12T10:18:00.473Z,932.74
2016-10-12T10:19:00.541Z,932.74
2016-10-12T10:20:00.588Z,932.79
2016-10-12T10:21:00.680Z,932.73
2016-10-12T10:22:00.736Z,932.73
2016-10-12T10:23:00.883Z,932.74
2016-10-12T10:24:00.859Z,932.74
2016-10-12T10:25:00.919Z,932.76
2016-10-12T10:26:00.962Z,932.75
2016-10-12T10:27:01.044Z,932.75
2016-10-12T10:28:01.198Z,932.81
2016-10-12T10:29:01.168Z,932.83
2016-10-12T10:30:01.201Z,932.87
2016-10-12T10:31:01.293Z,932.85
2016-10-12T10:32:01.356Z,932.83
2016-10-12T10:33:01.408Z,932.82
2016-10-12T10:34:01.447Z,932.8
2016-10-12T10:35:01.517Z,932.84
2016-10-12T10:36:01.570Z,932.88
2016-10-12T10:37:01.627Z,932.83
2016-10-12T10:38:01.688Z,932.85
2016-10-12T10:39:01.761Z,932.89
2016-10-12T10:40:01.793Z,932.93
2016-10-12T10:41:01.870Z,932.95
2016-10-12T10:42:01.920Z,932.96
2016-10-12T10:43:01.972Z,932.96
2016-10-12T10:44:02.034Z,933.03
2016-10-12T10:45:02.110Z,933
2016-10-12T10:46:02.166Z,933.03
2016-10-12T10:47:02.209Z,933.02
2016-10-12T10:48:02.257Z,933.06
2016-10-12T10:49:02.312Z,933
2016-10-12T10:50:02.373Z,933.04
2016-10-12T10:51:02.431Z,933.02
2016-10-12T10:52:02.493Z,932.97
2016-10-12T10:53:02.568Z,933.02
2016-10-12T10:54:02.610Z,933
2016-10-12T10:55:02.674Z,933
2016-10-12T10:56:02.717Z,933.07
2016-10-12T10:57:02.787Z,933.03
2016-10-12T10:58:02.821Z,933.09
2016-10-12T10:59:02.985Z,933.1
2016-10-12T11:00:02.931Z,933.09
2016-10-12T11:01:02.988Z,933.07
2016-10-12T11:02:03.058Z,933.06
2016-10-12T11:03:03.104Z,933.09
2016-10-12T11:04:03.186Z,933.1
2016-10-12T11:05:03.238Z,933.17
2016-10-12T11:06:03.266Z,933.13
2016-10-12T11:07:03.332Z,933.13
2016-10-12T11:08:03.377Z,933.06
2016-10-12T11:09:03.461Z,933.06
2016-10-12T11:10:03.488Z,933.04
2016-10-12T11:11:03.562Z,933.04
2016-10-12T11:12:03.613Z,933.03
2016-10-12T11:13:03.678Z,933.04
2016-10-12T11:14:03.742Z,933
2016-10-12T11:15:03.792Z,932.97
2016-10-12T11:16:03.826Z,933
2016-10-12T11:17:03.889Z,932.99
2016-10-12T11:18:03.959Z,932.95
2016-10-12T11:19:04.003Z,932.98
2016-10-12T11:20:04.057Z,932.99
2016-10-12T11:21:04.111Z,932.98
2016-10-12T11:22:04.186Z,933.01
2016-10-12T11:23:04.208Z,933.03
2016-10-12T11:24:04.288Z,933.02
2016-10-12T11:25:04.320Z,932.98
2016-10-12T11:26:04.384Z,932.99
2016-10-12T11:27:04.439Z,932.95
2016-10-12T11:28:04.498Z,932.95
2016-10-12T11:29:04.542Z,932.9
2016-10-12T11:30:04.700Z,932.92
2016-10-12T11:31:04.655Z,932.89
2016-10-12T11:32:04.712Z,932.89
2016-10-12T11:33:04.762Z,932.9
2016-10-12T11:34:04.827Z,932.87
2016-10-12T11:35:04.976Z,932.86
2016-10-12T11:36:04.941Z,932.87
2016-10-12T11:37:05.013Z,932.92
2016-10-12T11:38:05.038Z,932.9
2016-10-12T11:39:05.118Z,932.89
2016-10-12T11:40:05.182Z,932.88
2016-10-12T11:41:05.201Z,932.87
2016-10-12T11:42:05.291Z,932.85
2016-10-12T11:43:05.346Z,932.86
2016-10-12T11:44:05.368Z,932.87
2016-10-12T11:45:05.426Z,932.84
2016-10-12T11:46:05.487Z,932.8
2016-10-12T11:47:05.546Z,932.83
2016-10-12T11:48:05.614Z,932.8
2016-10-12T11:49:05.651Z,932.78
2016-10-12T11:50:05.724Z,932.75
2016-10-12T11:51:05.772Z,932.71
2016-10-12T11:52:05.826Z,932.7
2016-10-12T11:53:05.878Z,932.68
2016-10-12T11:54:05.922Z,932.64
2016-10-12T11:55:06.011Z,932.63
2016-10-12T11:56:06.039Z,932.61
2016-10-12T11:57:06.088Z,932.58
2016-10-12T11:58:06.167Z,932.59
2016-10-12T11:59:06.204Z,932.58
2016-10-12T12:00:06.261Z,932.53
2016-10-12T12:01:06.320Z,932.53
2016-10-12T12:02:06.365Z,932.52
2016-10-12T12:03:06.439Z,932.5
2016-10-12T12:04:06.491Z,932.46
2016-10-12T12:05:06.557Z,932.48
2016-10-12T12:06:06.603Z,932.44
2016-10-12T12:07:06.652Z,932.39
2016-10-12T12:08:06.696Z,932.34
2016-10-12T12:09:06.759Z,932.37
2016-10-12T12:10:06.822Z,932.37
2016-10-12T12:11:06.977Z,932.37
2016-10-12T12:12:06.923Z,932.4
2016-10-12T12:13:06.993Z,932.34
2016-10-12T12:14:07.062Z,932.27
2016-10-12T12:15:07.099Z,932.34
2016-10-12T12:16:07.165Z,932.31
2016-10-12T12:17:07.225Z,932.32
2016-10-12T12:18:07.281Z,932.3
2016-10-12T12:19:07.310Z,932.3
2016-10-12T12:20:07.367Z,932.3
2016-10-12T12:21:07.422Z,932.21
2016-10-12T12:22:07.490Z,932.18
2016-10-12T12:23:07.550Z,932.14
2016-10-12T12:24:07.592Z,932.16
2016-10-12T12:25:07.660Z,932.16
2016-10-12T12:26:07.702Z,932.18
2016-10-12T12:27:07.764Z,932.16
2016-10-12T12:28:07.831Z,932.14
2016-10-12T12:29:07.873Z,932.11
2016-10-12T12:30:07.959Z,932.08
2016-10-12T12:31:07.992Z,932.09
2016-10-12T12:32:08.053Z,932.06